This is the latest recevied weather packets stored in our database for station/object NO9B. If no packets are shown the sender has not sent any weather packets the latest 1 day(s).
| Time | Temp. | Humidity | Pressure | Rain* | Wind** | Luminosity | Snow |
|---|---|---|---|---|---|---|---|
| 1778006677 | 12.78° C | 34% | 1009.3 hPa | 0 mm | 2.24 m/s, 232° | 366 W/m² | - |
| 1778006373 | 12.78° C | 33% | 1009.3 hPa | 0 mm | 3.58 m/s, 221° | 310 W/m² | - |
| 1778006070 | 12.78° C | 32% | 1009.4 hPa | 0 mm | 2.24 m/s, 200° | 261 W/m² | - |
| 1778005767 | 12.78° C | 34% | 1009.3 hPa | 0 mm | 1.79 m/s, 261° | 239 W/m² | - |
| 1778005464 | 12.78° C | 33% | 1009.2 hPa | 0 mm | 1.34 m/s, 244° | 295 W/m² | - |
| 1778005160 | 12.78° C | 33% | 1009.2 hPa | 0 mm | 1.34 m/s, 242° | 337 W/m² | - |
| 1778004858 | 12.78° C | 33% | 1009.2 hPa | 0 mm | 1.79 m/s, 272° | 339 W/m² | - |
| 1778004554 | 13.33° C | 32% | 1008.9 hPa | 0 mm | 2.24 m/s, 249° | 227 W/m² | - |
| 1778004251 | 12.78° C | 34% | 1009 hPa | 0 mm | 1.34 m/s, 279° | 341 W/m² | - |
| 1778003948 | 12.78° C | 30% | 1008.9 hPa | 0 mm | 1.34 m/s, 285° | 489 W/m² | - |
| 1778003644 | 13.33° C | 32% | 1008.8 hPa | 0 mm | 0.89 m/s, 21° | 237 W/m² | - |
| 1778003340 | 12.78° C | 29% | 1008.9 hPa | 0 mm | 1.79 m/s, 238° | 344 W/m² | - |
| 1778003038 | 13.33° C | 30% | 1009 hPa | 0 mm | 1.79 m/s, 296° | 294 W/m² | - |
| 1778002734 | 13.33° C | 32% | 1008.9 hPa | 0 mm | 1.79 m/s, 236° | 361 W/m² | - |
| 1778002431 | 12.78° C | 33% | 1009 hPa | 0 mm | 0.89 m/s, 205° | 399 W/m² | - |
| 1778002128 | 12.78° C | 34% | 1009 hPa | 0 mm | 1.79 m/s, 249° | 415 W/m² | - |
| 1778001825 | 12.78° C | 35% | 1009.1 hPa | 0 mm | 1.34 m/s, 241° | 522 W/m² | - |
| 1778001525 | 12.78° C | 34% | 1009 hPa | 0 mm | 1.79 m/s, 273° | 576 W/m² | - |
| 1778001222 | 12.78° C | 33% | 1008.9 hPa | 0 mm | 2.68 m/s, 208° | 399 W/m² | - |
| 1778000918 | 12.78° C | 34% | 1008.7 hPa | 0 mm | 1.79 m/s, 295° | 557 W/m² | - |
| 1778000615 | 12.78° C | 33% | 1008.8 hPa | 0 mm | 2.68 m/s, 245° | 372 W/m² | - |
| 1778000311 | 12.78° C | 34% | 1008.7 hPa | 0 mm | 1.79 m/s, 264° | 322 W/m² | - |
| 1778000006 | 12.22° C | 35% | 1008.8 hPa | 0 mm | 1.79 m/s, 250° | 473 W/m² | - |
| 1777999702 | 12.78° C | 34% | 1008.7 hPa | 0 mm | 1.79 m/s, 248° | 339 W/m² | - |
| 1777999399 | 12.22° C | 36% | 1008.7 hPa | 0 mm | 1.79 m/s, 259° | 346 W/m² | - |
* Rain latest hour (hover to see other rain measurements)
** Current wind speed in m/s (hover to see current wind gust speed)